sensor_id;sensor_type;location;lat;lon;timestamp;P1;durP1;ratioP1;P2;durP2;ratioP2
40254;SDS011;25973;52.368;4.940;2022-10-15T00:00:28;30.27;;;15.63;;
40254;SDS011;25973;52.368;4.940;2022-10-15T00:02:53;24.77;;;11.90;;
40254;SDS011;25973;52.368;4.940;2022-10-15T00:05:19;25.30;;;12.60;;
40254;SDS011;25973;52.368;4.940;2022-10-15T00:07:45;21.05;;;11.90;;
40254;SDS011;25973;52.368;4.940;2022-10-15T00:10:12;30.02;;;13.75;;
40254;SDS011;25973;52.368;4.940;2022-10-15T00:12:38;32.00;;;15.82;;
40254;SDS011;25973;52.368;4.940;2022-10-15T00:15:04;27.20;;;12.35;;
40254;SDS011;25973;52.368;4.940;2022-10-15T00:17:30;25.92;;;12.65;;
40254;SDS011;25973;52.368;4.940;2022-10-15T00:19:57;23.42;;;11.38;;
40254;SDS011;25973;52.368;4.940;2022-10-15T00:22:23;22.98;;;12.45;;
40254;SDS011;25973;52.368;4.940;2022-10-15T00:24:48;34.17;;;16.80;;
40254;SDS011;25973;52.368;4.940;2022-10-15T00:27:14;31.67;;;14.88;;
40254;SDS011;25973;52.368;4.940;2022-10-15T00:29:39;27.95;;;12.55;;
40254;SDS011;25973;52.368;4.940;2022-10-15T00:32:05;49.80;;;19.55;;
40254;SDS011;25973;52.368;4.940;2022-10-15T00:34:31;32.35;;;15.75;;
40254;SDS011;25973;52.368;4.940;2022-10-15T00:36:58;29.10;;;13.25;;
40254;SDS011;25973;52.368;4.940;2022-10-15T00:39:24;25.58;;;14.02;;
40254;SDS011;25973;52.368;4.940;2022-10-15T00:41:50;31.23;;;13.70;;
40254;SDS011;25973;52.368;4.940;2022-10-15T00:46:54;24.30;;;13.75;;
40254;SDS011;25973;52.368;4.940;2022-10-15T00:49:24;34.13;;;14.80;;
40254;SDS011;25973;52.368;4.940;2022-10-15T00:52:03;29.23;;;15.80;;
40254;SDS011;25973;52.368;4.940;2022-10-15T00:54:41;27.58;;;13.65;;
40254;SDS011;25973;52.368;4.940;2022-10-15T00:57:13;30.35;;;16.38;;
40254;SDS011;25973;52.368;4.940;2022-10-15T00:59:43;30.98;;;16.75;;
40254;SDS011;25973;52.368;4.940;2022-10-15T01:02:12;33.90;;;16.70;;
40254;SDS011;25973;52.368;4.940;2022-10-15T01:04:38;35.00;;;15.65;;
40254;SDS011;25973;52.368;4.940;2022-10-15T01:07:05;29.95;;;15.88;;
40254;SDS011;25973;52.368;4.940;2022-10-15T01:09:32;36.03;;;16.10;;
40254;SDS011;25973;52.368;4.940;2022-10-15T01:11:58;32.25;;;15.13;;
40254;SDS011;25973;52.368;4.940;2022-10-15T01:14:49;34.55;;;14.90;;
40254;SDS011;25973;52.368;4.940;2022-10-15T01:23:33;33.40;;;15.75;;
40254;SDS011;25973;52.368;4.940;2022-10-15T01:26:18;35.50;;;16.23;;
40254;SDS011;25973;52.368;4.940;2022-10-15T01:34:29;34.20;;;17.10;;
40254;SDS011;25973;52.368;4.940;2022-10-15T01:40:07;33.92;;;17.00;;
40254;SDS011;25973;52.368;4.940;2022-10-15T01:43:03;33.85;;;16.90;;
40254;SDS011;25973;52.368;4.940;2022-10-15T01:48:07;31.58;;;17.13;;
40254;SDS011;25973;52.368;4.940;2022-10-15T01:50:35;39.38;;;18.65;;
40254;SDS011;25973;52.368;4.940;2022-10-15T01:53:07;42.83;;;19.20;;
40254;SDS011;25973;52.368;4.940;2022-10-15T01:55:35;38.30;;;17.67;;
40254;SDS011;25973;52.368;4.940;2022-10-15T01:58:04;46.22;;;18.40;;
40254;SDS011;25973;52.368;4.940;2022-10-15T02:00:32;46.00;;;19.35;;
40254;SDS011;25973;52.368;4.940;2022-10-15T02:03:01;38.17;;;18.20;;
40254;SDS011;25973;52.368;4.940;2022-10-15T02:05:29;41.72;;;20.08;;
40254;SDS011;25973;52.368;4.940;2022-10-15T02:11:04;39.20;;;18.10;;
40254;SDS011;25973;52.368;4.940;2022-10-15T02:13:51;35.58;;;18.58;;
40254;SDS011;25973;52.368;4.940;2022-10-15T02:24:34;37.22;;;18.38;;
40254;SDS011;25973;52.368;4.940;2022-10-15T02:27:03;49.00;;;19.35;;
40254;SDS011;25973;52.368;4.940;2022-10-15T02:29:31;41.25;;;20.27;;
40254;SDS011;25973;52.368;4.940;2022-10-15T02:31:58;42.58;;;20.38;;
40254;SDS011;25973;52.368;4.940;2022-10-15T02:34:27;35.33;;;18.45;;
40254;SDS011;25973;52.368;4.940;2022-10-15T02:36:56;38.15;;;19.05;;
40254;SDS011;25973;52.368;4.940;2022-10-15T02:39:25;40.42;;;20.10;;
40254;SDS011;25973;52.368;4.940;2022-10-15T02:41:51;36.97;;;17.70;;
40254;SDS011;25973;52.368;4.940;2022-10-15T02:44:18;37.25;;;19.17;;
40254;SDS011;25973;52.368;4.940;2022-10-15T02:46:44;35.42;;;18.33;;
40254;SDS011;25973;52.368;4.940;2022-10-15T02:49:10;36.50;;;18.48;;
40254;SDS011;25973;52.368;4.940;2022-10-15T02:51:35;38.47;;;19.20;;
40254;SDS011;25973;52.368;4.940;2022-10-15T02:54:02;42.67;;;20.95;;
40254;SDS011;25973;52.368;4.940;2022-10-15T02:56:29;41.15;;;19.42;;
40254;SDS011;25973;52.368;4.940;2022-10-15T02:58:55;43.78;;;20.05;;
40254;SDS011;25973;52.368;4.940;2022-10-15T03:01:20;41.53;;;19.83;;
40254;SDS011;25973;52.368;4.940;2022-10-15T03:03:46;36.03;;;18.08;;
40254;SDS011;25973;52.368;4.940;2022-10-15T03:06:12;42.67;;;21.10;;
40254;SDS011;25973;52.368;4.940;2022-10-15T03:08:38;42.88;;;18.73;;
40254;SDS011;25973;52.368;4.940;2022-10-15T03:11:03;43.47;;;20.95;;
40254;SDS011;25973;52.368;4.940;2022-10-15T03:13:29;38.42;;;19.67;;
40254;SDS011;25973;52.368;4.940;2022-10-15T03:15:55;37.63;;;19.42;;
40254;SDS011;25973;52.368;4.940;2022-10-15T03:18:21;44.60;;;20.02;;
40254;SDS011;25973;52.368;4.940;2022-10-15T03:20:53;39.78;;;20.05;;
40254;SDS011;25973;52.368;4.940;2022-10-15T03:23:19;44.50;;;21.17;;
40254;SDS011;25973;52.368;4.940;2022-10-15T03:25:45;39.83;;;19.77;;
40254;SDS011;25973;52.368;4.940;2022-10-15T03:28:11;48.05;;;22.95;;
40254;SDS011;25973;52.368;4.940;2022-10-15T03:30:36;40.75;;;22.38;;
40254;SDS011;25973;52.368;4.940;2022-10-15T03:33:02;46.22;;;21.33;;
40254;SDS011;25973;52.368;4.940;2022-10-15T03:35:27;40.75;;;20.17;;
40254;SDS011;25973;52.368;4.940;2022-10-15T03:37:53;43.80;;;21.67;;
40254;SDS011;25973;52.368;4.940;2022-10-15T03:40:18;42.40;;;21.45;;
40254;SDS011;25973;52.368;4.940;2022-10-15T03:42:48;46.72;;;21.73;;
40254;SDS011;25973;52.368;4.940;2022-10-15T03:45:18;50.13;;;24.85;;
40254;SDS011;25973;52.368;4.940;2022-10-15T03:47:44;47.22;;;21.23;;
40254;SDS011;25973;52.368;4.940;2022-10-15T03:50:10;45.33;;;21.05;;
40254;SDS011;25973;52.368;4.940;2022-10-15T03:52:36;40.83;;;21.95;;
40254;SDS011;25973;52.368;4.940;2022-10-15T03:55:02;39.83;;;20.85;;
40254;SDS011;25973;52.368;4.940;2022-10-15T03:57:29;41.15;;;20.42;;
40254;SDS011;25973;52.368;4.940;2022-10-15T03:59:54;41.72;;;22.10;;
40254;SDS011;25973;52.368;4.940;2022-10-15T04:02:20;40.97;;;20.63;;
40254;SDS011;25973;52.368;4.940;2022-10-15T04:04:45;45.38;;;22.65;;
40254;SDS011;25973;52.368;4.940;2022-10-15T04:07:11;43.40;;;21.67;;
40254;SDS011;25973;52.368;4.940;2022-10-15T04:09:37;43.08;;;21.45;;
40254;SDS011;25973;52.368;4.940;2022-10-15T04:12:02;43.10;;;21.00;;
40254;SDS011;25973;52.368;4.940;2022-10-15T04:14:28;42.60;;;19.98;;
40254;SDS011;25973;52.368;4.940;2022-10-15T04:16:54;39.53;;;20.02;;
40254;SDS011;25973;52.368;4.940;2022-10-15T04:19:20;44.55;;;20.60;;
40254;SDS011;25973;52.368;4.940;2022-10-15T04:21:46;41.55;;;20.48;;
40254;SDS011;25973;52.368;4.940;2022-10-15T04:24:11;37.10;;;20.80;;
40254;SDS011;25973;52.368;4.940;2022-10-15T04:26:37;44.90;;;20.73;;
40254;SDS011;25973;52.368;4.940;2022-10-15T04:29:03;39.80;;;20.58;;
40254;SDS011;25973;52.368;4.940;2022-10-15T04:31:28;46.97;;;21.65;;
40254;SDS011;25973;52.368;4.940;2022-10-15T04:33:54;40.53;;;20.08;;
40254;SDS011;25973;52.368;4.940;2022-10-15T04:36:19;40.40;;;22.17;;
40254;SDS011;25973;52.368;4.940;2022-10-15T04:38:45;38.55;;;21.35;;
40254;SDS011;25973;52.368;4.940;2022-10-15T04:41:12;40.10;;;21.80;;
40254;SDS011;25973;52.368;4.940;2022-10-15T04:43:37;39.40;;;20.73;;
40254;SDS011;25973;52.368;4.940;2022-10-15T04:46:05;45.50;;;21.85;;
40254;SDS011;25973;52.368;4.940;2022-10-15T04:48:32;38.58;;;19.98;;
40254;SDS011;25973;52.368;4.940;2022-10-15T04:51:06;43.67;;;21.20;;
40254;SDS011;25973;52.368;4.940;2022-10-15T04:53:33;39.70;;;22.33;;
40254;SDS011;25973;52.368;4.940;2022-10-15T04:56:03;41.58;;;21.35;;
40254;SDS011;25973;52.368;4.940;2022-10-15T04:58:30;40.05;;;20.60;;
40254;SDS011;25973;52.368;4.940;2022-10-15T05:01:07;38.95;;;21.88;;
40254;SDS011;25973;52.368;4.940;2022-10-15T05:03:36;39.35;;;20.55;;
40254;SDS011;25973;52.368;4.940;2022-10-15T05:06:03;43.25;;;20.60;;
40254;SDS011;25973;52.368;4.940;2022-10-15T05:08:32;38.05;;;20.45;;
40254;SDS011;25973;52.368;4.940;2022-10-15T05:10:59;39.95;;;20.70;;
40254;SDS011;25973;52.368;4.940;2022-10-15T05:13:29;42.40;;;22.38;;
40254;SDS011;25973;52.368;4.940;2022-10-15T05:15:55;43.20;;;21.20;;
40254;SDS011;25973;52.368;4.940;2022-10-15T05:18:21;47.03;;;21.67;;
40254;SDS011;25973;52.368;4.940;2022-10-15T05:20:47;44.58;;;22.23;;
40254;SDS011;25973;52.368;4.940;2022-10-15T05:23:13;44.08;;;21.73;;
40254;SDS011;25973;52.368;4.940;2022-10-15T05:25:38;42.42;;;21.67;;
40254;SDS011;25973;52.368;4.940;2022-10-15T05:28:04;45.00;;;21.98;;
40254;SDS011;25973;52.368;4.940;2022-10-15T05:30:30;41.90;;;22.55;;
40254;SDS011;25973;52.368;4.940;2022-10-15T05:32:57;42.75;;;21.70;;
40254;SDS011;25973;52.368;4.940;2022-10-15T05:35:23;41.53;;;21.23;;
40254;SDS011;25973;52.368;4.940;2022-10-15T05:37:48;45.85;;;22.90;;
40254;SDS011;25973;52.368;4.940;2022-10-15T05:40:14;44.47;;;21.40;;
40254;SDS011;25973;52.368;4.940;2022-10-15T05:42:39;42.15;;;22.88;;
40254;SDS011;25973;52.368;4.940;2022-10-15T05:45:05;38.42;;;21.10;;
40254;SDS011;25973;52.368;4.940;2022-10-15T05:47:31;45.80;;;23.08;;
40254;SDS011;25973;52.368;4.940;2022-10-15T05:49:57;39.00;;;22.00;;
40254;SDS011;25973;52.368;4.940;2022-10-15T05:52:22;44.42;;;23.92;;
40254;SDS011;25973;52.368;4.940;2022-10-15T05:54:48;45.72;;;22.48;;
40254;SDS011;25973;52.368;4.940;2022-10-15T05:57:13;42.72;;;22.10;;
40254;SDS011;25973;52.368;4.940;2022-10-15T05:59:39;55.88;;;25.38;;
40254;SDS011;25973;52.368;4.940;2022-10-15T06:02:05;44.25;;;22.77;;
40254;SDS011;25973;52.368;4.940;2022-10-15T06:04:30;42.35;;;23.92;;
40254;SDS011;25973;52.368;4.940;2022-10-15T06:06:56;49.95;;;23.00;;
40254;SDS011;25973;52.368;4.940;2022-10-15T06:09:22;52.92;;;25.15;;
40254;SDS011;25973;52.368;4.940;2022-10-15T06:11:48;52.47;;;23.95;;
40254;SDS011;25973;52.368;4.940;2022-10-15T06:14:13;47.88;;;24.42;;
40254;SDS011;25973;52.368;4.940;2022-10-15T06:16:39;54.13;;;25.73;;
40254;SDS011;25973;52.368;4.940;2022-10-15T06:19:05;59.42;;;26.23;;
40254;SDS011;25973;52.368;4.940;2022-10-15T06:21:30;52.85;;;24.90;;
40254;SDS011;25973;52.368;4.940;2022-10-15T06:23:56;47.88;;;25.05;;
40254;SDS011;25973;52.368;4.940;2022-10-15T06:26:21;54.38;;;26.55;;
40254;SDS011;25973;52.368;4.940;2022-10-15T06:28:47;60.28;;;26.05;;
40254;SDS011;25973;52.368;4.940;2022-10-15T06:31:15;55.42;;;24.98;;
40254;SDS011;25973;52.368;4.940;2022-10-15T06:33:41;53.08;;;25.23;;
40254;SDS011;25973;52.368;4.940;2022-10-15T06:36:08;58.20;;;26.90;;
40254;SDS011;25973;52.368;4.940;2022-10-15T06:38:35;56.42;;;25.52;;
40254;SDS011;25973;52.368;4.940;2022-10-15T06:41:05;54.25;;;25.92;;
40254;SDS011;25973;52.368;4.940;2022-10-15T06:43:31;56.67;;;25.55;;
40254;SDS011;25973;52.368;4.940;2022-10-15T06:45:57;55.30;;;25.83;;
40254;SDS011;25973;52.368;4.940;2022-10-15T06:48:23;58.90;;;26.17;;
40254;SDS011;25973;52.368;4.940;2022-10-15T06:50:49;58.78;;;24.58;;
40254;SDS011;25973;52.368;4.940;2022-10-15T06:53:15;56.17;;;23.88;;
40254;SDS011;25973;52.368;4.940;2022-10-15T06:55:41;56.60;;;24.55;;
40254;SDS011;25973;52.368;4.940;2022-10-15T06:58:06;61.75;;;23.80;;
40254;SDS011;25973;52.368;4.940;2022-10-15T07:00:32;57.95;;;24.55;;
40254;SDS011;25973;52.368;4.940;2022-10-15T07:03:04;57.22;;;24.70;;
40254;SDS011;25973;52.368;4.940;2022-10-15T07:05:30;52.70;;;22.48;;
40254;SDS011;25973;52.368;4.940;2022-10-15T07:07:57;50.65;;;22.00;;
40254;SDS011;25973;52.368;4.940;2022-10-15T07:10:23;44.97;;;20.92;;
40254;SDS011;25973;52.368;4.940;2022-10-15T07:12:50;58.03;;;21.95;;
40254;SDS011;25973;52.368;4.940;2022-10-15T07:15:15;57.55;;;21.40;;
40254;SDS011;25973;52.368;4.940;2022-10-15T07:17:45;51.55;;;22.00;;
40254;SDS011;25973;52.368;4.940;2022-10-15T07:20:12;43.63;;;20.27;;
40254;SDS011;25973;52.368;4.940;2022-10-15T07:22:38;49.50;;;20.35;;
40254;SDS011;25973;52.368;4.940;2022-10-15T07:25:04;43.88;;;19.33;;
40254;SDS011;25973;52.368;4.940;2022-10-15T07:27:29;46.63;;;20.30;;
40254;SDS011;25973;52.368;4.940;2022-10-15T07:29:55;45.40;;;20.00;;
40254;SDS011;25973;52.368;4.940;2022-10-15T07:32:21;44.53;;;20.85;;
40254;SDS011;25973;52.368;4.940;2022-10-15T07:34:46;51.28;;;19.23;;
40254;SDS011;25973;52.368;4.940;2022-10-15T07:37:12;44.83;;;19.70;;
40254;SDS011;25973;52.368;4.940;2022-10-15T07:39:37;39.85;;;19.02;;
40254;SDS011;25973;52.368;4.940;2022-10-15T07:42:03;40.90;;;18.17;;
40254;SDS011;25973;52.368;4.940;2022-10-15T07:44:28;46.05;;;18.17;;
40254;SDS011;25973;52.368;4.940;2022-10-15T07:46:54;37.67;;;17.60;;
40254;SDS011;25973;52.368;4.940;2022-10-15T07:49:19;43.28;;;18.42;;
40254;SDS011;25973;52.368;4.940;2022-10-15T07:51:45;44.92;;;19.33;;
40254;SDS011;25973;52.368;4.940;2022-10-15T07:54:16;46.08;;;19.17;;
40254;SDS011;25973;52.368;4.940;2022-10-15T07:56:42;48.00;;;20.63;;
40254;SDS011;25973;52.368;4.940;2022-10-15T07:59:07;45.78;;;20.70;;
40254;SDS011;25973;52.368;4.940;2022-10-15T08:01:33;55.03;;;21.67;;
40254;SDS011;25973;52.368;4.940;2022-10-15T08:03:58;51.10;;;20.35;;
40254;SDS011;25973;52.368;4.940;2022-10-15T08:06:24;52.13;;;20.80;;
40254;SDS011;25973;52.368;4.940;2022-10-15T08:08:49;57.50;;;21.40;;
40254;SDS011;25973;52.368;4.940;2022-10-15T08:11:15;58.35;;;21.25;;
40254;SDS011;25973;52.368;4.940;2022-10-15T08:13:44;62.95;;;20.88;;
40254;SDS011;25973;52.368;4.940;2022-10-15T08:16:11;59.50;;;22.20;;
40254;SDS011;25973;52.368;4.940;2022-10-15T08:18:38;59.25;;;21.48;;
40254;SDS011;25973;52.368;4.940;2022-10-15T08:21:04;59.38;;;21.30;;
40254;SDS011;25973;52.368;4.940;2022-10-15T08:23:31;62.13;;;21.80;;
40254;SDS011;25973;52.368;4.940;2022-10-15T08:25:58;57.55;;;22.55;;
40254;SDS011;25973;52.368;4.940;2022-10-15T08:28:24;52.33;;;21.27;;
40254;SDS011;25973;52.368;4.940;2022-10-15T08:30:55;57.45;;;22.98;;
40254;SDS011;25973;52.368;4.940;2022-10-15T08:33:22;51.92;;;21.23;;
40254;SDS011;25973;52.368;4.940;2022-10-15T08:35:47;56.53;;;20.65;;
40254;SDS011;25973;52.368;4.940;2022-10-15T08:38:13;57.75;;;20.60;;
40254;SDS011;25973;52.368;4.940;2022-10-15T08:40:38;50.97;;;20.48;;
40254;SDS011;25973;52.368;4.940;2022-10-15T08:43:15;47.88;;;17.73;;
40254;SDS011;25973;52.368;4.940;2022-10-15T08:46:03;44.90;;;18.23;;
40254;SDS011;25973;52.368;4.940;2022-10-15T08:48:36;47.70;;;19.05;;
40254;SDS011;25973;52.368;4.940;2022-10-15T08:53:38;38.72;;;16.10;;
40254;SDS011;25973;52.368;4.940;2022-10-15T08:56:11;43.13;;;17.38;;
40254;SDS011;25973;52.368;4.940;2022-10-15T08:58:45;31.35;;;15.38;;
40254;SDS011;25973;52.368;4.940;2022-10-15T09:01:47;34.92;;;16.70;;
40254;SDS011;25973;52.368;4.940;2022-10-15T09:04:20;31.15;;;14.10;;
40254;SDS011;25973;52.368;4.940;2022-10-15T09:06:52;29.60;;;12.80;;
40254;SDS011;25973;52.368;4.940;2022-10-15T09:12:27;26.98;;;13.38;;
40254;SDS011;25973;52.368;4.940;2022-10-15T09:14:59;27.58;;;12.73;;
40254;SDS011;25973;52.368;4.940;2022-10-15T09:17:26;21.75;;;11.88;;
40254;SDS011;25973;52.368;4.940;2022-10-15T09:19:56;24.02;;;11.95;;
40254;SDS011;25973;52.368;4.940;2022-10-15T09:22:23;21.38;;;12.05;;
40254;SDS011;25973;52.368;4.940;2022-10-15T09:24:51;23.83;;;11.85;;
40254;SDS011;25973;52.368;4.940;2022-10-15T09:29:59;26.05;;;10.63;;
40254;SDS011;25973;52.368;4.940;2022-10-15T09:32:54;20.95;;;11.50;;
40254;SDS011;25973;52.368;4.940;2022-10-15T09:35:40;25.80;;;11.65;;
40254;SDS011;25973;52.368;4.940;2022-10-15T09:41:24;22.13;;;11.93;;
40254;SDS011;25973;52.368;4.940;2022-10-15T09:44:24;21.95;;;10.52;;
40254;SDS011;25973;52.368;4.940;2022-10-15T09:46:57;16.55;;;9.52;;
40254;SDS011;25973;52.368;4.940;2022-10-15T09:49:23;17.88;;;9.75;;
40254;SDS011;25973;52.368;4.940;2022-10-15T09:52:07;20.33;;;10.63;;
40254;SDS011;25973;52.368;4.940;2022-10-15T09:57:17;18.88;;;9.95;;
40254;SDS011;25973;52.368;4.940;2022-10-15T09:59:51;18.17;;;10.13;;
40254;SDS011;25973;52.368;4.940;2022-10-15T10:02:24;17.98;;;9.70;;
40254;SDS011;25973;52.368;4.940;2022-10-15T10:04:50;22.00;;;10.77;;
40254;SDS011;25973;52.368;4.940;2022-10-15T10:07:29;18.45;;;10.10;;
40254;SDS011;25973;52.368;4.940;2022-10-15T10:09:57;15.05;;;9.38;;
40254;SDS011;25973;52.368;4.940;2022-10-15T10:12:27;21.75;;;11.80;;
40254;SDS011;25973;52.368;4.940;2022-10-15T10:14:58;20.02;;;11.45;;
40254;SDS011;25973;52.368;4.940;2022-10-15T10:17:28;20.02;;;10.60;;
40254;SDS011;25973;52.368;4.940;2022-10-15T10:20:28;19.90;;;10.90;;
40254;SDS011;25973;52.368;4.940;2022-10-15T10:22:48;18.75;;;10.95;;
40254;SDS011;25973;52.368;4.940;2022-10-15T10:27:51;22.30;;;10.85;;
40254;SDS011;25973;52.368;4.940;2022-10-15T10:30:17;20.08;;;11.30;;
40254;SDS011;25973;52.368;4.940;2022-10-15T10:32:44;22.27;;;11.35;;
40254;SDS011;25973;52.368;4.940;2022-10-15T10:35:19;19.33;;;10.65;;
40254;SDS011;25973;52.368;4.940;2022-10-15T10:37:47;17.00;;;10.23;;
40254;SDS011;25973;52.368;4.940;2022-10-15T10:42:48;18.83;;;10.48;;
40254;SDS011;25973;52.368;4.940;2022-10-15T10:45:55;20.48;;;9.90;;
40254;SDS011;25973;52.368;4.940;2022-10-15T10:53:37;20.33;;;8.55;;
40254;SDS011;25973;52.368;4.940;2022-10-15T10:56:34;15.32;;;8.20;;
40254;SDS011;25973;52.368;4.940;2022-10-15T10:59:18;13.25;;;7.32;;
40254;SDS011;25973;52.368;4.940;2022-10-15T11:02:13;13.02;;;8.45;;
40254;SDS011;25973;52.368;4.940;2022-10-15T11:04:39;15.02;;;7.43;;
40254;SDS011;25973;52.368;4.940;2022-10-15T11:07:05;11.52;;;7.13;;
40254;SDS011;25973;52.368;4.940;2022-10-15T11:09:54;17.08;;;6.63;;
40254;SDS011;25973;52.368;4.940;2022-10-15T11:15:26;10.25;;;6.00;;
40254;SDS011;25973;52.368;4.940;2022-10-15T11:25:53;12.13;;;6.25;;
40254;SDS011;25973;52.368;4.940;2022-10-15T11:28:44;11.30;;;5.55;;
40254;SDS011;25973;52.368;4.940;2022-10-15T11:34:02;6.30;;;3.75;;
40254;SDS011;25973;52.368;4.940;2022-10-15T11:36:48;10.20;;;4.15;;
40254;SDS011;25973;52.368;4.940;2022-10-15T11:39:29;9.48;;;4.22;;
40254;SDS011;25973;52.368;4.940;2022-10-15T11:42:18;6.70;;;3.50;;
40254;SDS011;25973;52.368;4.940;2022-10-15T11:45:31;7.25;;;4.53;;
40254;SDS011;25973;52.368;4.940;2022-10-15T11:51:36;8.77;;;3.85;;
40254;SDS011;25973;52.368;4.940;2022-10-15T11:55:14;9.20;;;3.58;;
40254;SDS011;25973;52.368;4.940;2022-10-15T11:57:28;6.60;;;3.72;;
40254;SDS011;25973;52.368;4.940;2022-10-15T12:00:00;7.82;;;3.95;;
40254;SDS011;25973;52.368;4.940;2022-10-15T12:02:38;9.07;;;4.20;;
40254;SDS011;25973;52.368;4.940;2022-10-15T12:05:05;5.07;;;3.08;;
40254;SDS011;25973;52.368;4.940;2022-10-15T12:07:42;4.60;;;2.75;;
40254;SDS011;25973;52.368;4.940;2022-10-15T12:13:01;7.13;;;3.17;;
40254;SDS011;25973;52.368;4.940;2022-10-15T12:18:43;5.82;;;3.33;;
40254;SDS011;25973;52.368;4.940;2022-10-15T12:21:35;8.30;;;3.53;;
40254;SDS011;25973;52.368;4.940;2022-10-15T12:27:24;6.07;;;3.17;;
40254;SDS011;25973;52.368;4.940;2022-10-15T12:35:22;6.28;;;3.60;;
40254;SDS011;25973;52.368;4.940;2022-10-15T12:37:54;9.05;;;5.05;;
40254;SDS011;25973;52.368;4.940;2022-10-15T12:42:56;7.82;;;4.28;;
40254;SDS011;25973;52.368;4.940;2022-10-15T12:45:32;8.95;;;3.72;;
40254;SDS011;25973;52.368;4.940;2022-10-15T12:50:28;7.05;;;3.92;;
40254;SDS011;25973;52.368;4.940;2022-10-15T12:58:42;7.65;;;3.75;;
40254;SDS011;25973;52.368;4.940;2022-10-15T13:08:51;5.50;;;3.65;;
40254;SDS011;25973;52.368;4.940;2022-10-15T13:13:58;6.53;;;3.20;;
40254;SDS011;25973;52.368;4.940;2022-10-15T13:16:44;7.20;;;4.25;;
40254;SDS011;25973;52.368;4.940;2022-10-15T13:22:20;6.35;;;3.65;;
40254;SDS011;25973;52.368;4.940;2022-10-15T13:24:47;4.55;;;2.92;;
40254;SDS011;25973;52.368;4.940;2022-10-15T13:27:34;5.95;;;3.90;;
40254;SDS011;25973;52.368;4.940;2022-10-15T13:30:09;5.55;;;3.55;;
40254;SDS011;25973;52.368;4.940;2022-10-15T13:32:49;7.60;;;5.00;;
40254;SDS011;25973;52.368;4.940;2022-10-15T13:35:19;4.18;;;2.47;;
40254;SDS011;25973;52.368;4.940;2022-10-15T13:37:50;5.45;;;2.60;;
40254;SDS011;25973;52.368;4.940;2022-10-15T13:40:17;3.67;;;2.78;;
40254;SDS011;25973;52.368;4.940;2022-10-15T13:43:00;3.65;;;2.05;;
40254;SDS011;25973;52.368;4.940;2022-10-15T13:45:26;3.40;;;2.35;;
40254;SDS011;25973;52.368;4.940;2022-10-15T13:47:53;3.88;;;2.25;;
40254;SDS011;25973;52.368;4.940;2022-10-15T13:52:50;3.50;;;1.92;;
40254;SDS011;25973;52.368;4.940;2022-10-15T13:55:36;2.50;;;1.70;;
40254;SDS011;25973;52.368;4.940;2022-10-15T13:58:14;2.95;;;1.52;;
40254;SDS011;25973;52.368;4.940;2022-10-15T14:00:58;6.97;;;2.13;;
40254;SDS011;25973;52.368;4.940;2022-10-15T14:04:12;13.93;;;6.53;;
40254;SDS011;25973;52.368;4.940;2022-10-15T14:06:41;3.45;;;1.30;;
40254;SDS011;25973;52.368;4.940;2022-10-15T14:09:21;23.42;;;8.48;;
40254;SDS011;25973;52.368;4.940;2022-10-15T14:11:51;6.22;;;1.40;;
40254;SDS011;25973;52.368;4.940;2022-10-15T14:17:06;4.22;;;0.82;;
40254;SDS011;25973;52.368;4.940;2022-10-15T14:19:34;5.25;;;0.93;;
40254;SDS011;25973;52.368;4.940;2022-10-15T14:22:02;3.83;;;0.93;;
40254;SDS011;25973;52.368;4.940;2022-10-15T14:24:29;6.05;;;0.80;;
40254;SDS011;25973;52.368;4.940;2022-10-15T14:27:11;4.50;;;0.80;;
40254;SDS011;25973;52.368;4.940;2022-10-15T14:29:43;2.55;;;0.60;;
40254;SDS011;25973;52.368;4.940;2022-10-15T14:32:27;6.93;;;0.60;;
40254;SDS011;25973;52.368;4.940;2022-10-15T14:35:27;4.07;;;0.77;;
40254;SDS011;25973;52.368;4.940;2022-10-15T14:37:59;4.65;;;0.70;;
40254;SDS011;25973;52.368;4.940;2022-10-15T14:40:27;11.85;;;1.70;;
40254;SDS011;25973;52.368;4.940;2022-10-15T14:45:52;8.88;;;1.73;;
40254;SDS011;25973;52.368;4.940;2022-10-15T14:48:25;2.88;;;0.80;;
40254;SDS011;25973;52.368;4.940;2022-10-15T14:50:55;3.78;;;0.90;;
40254;SDS011;25973;52.368;4.940;2022-10-15T14:53:24;7.25;;;0.75;;
40254;SDS011;25973;52.368;4.940;2022-10-15T14:55:55;2.95;;;0.68;;
40254;SDS011;25973;52.368;4.940;2022-10-15T14:58:33;5.78;;;0.77;;
40254;SDS011;25973;52.368;4.940;2022-10-15T15:01:02;4.45;;;1.02;;
40254;SDS011;25973;52.368;4.940;2022-10-15T15:03:32;5.60;;;0.63;;
40254;SDS011;25973;52.368;4.940;2022-10-15T15:06:07;3.40;;;0.60;;
40254;SDS011;25973;52.368;4.940;2022-10-15T15:08:34;2.45;;;0.77;;
40254;SDS011;25973;52.368;4.940;2022-10-15T15:11:00;6.20;;;1.42;;
40254;SDS011;25973;52.368;4.940;2022-10-15T15:13:29;5.70;;;1.63;;
40254;SDS011;25973;52.368;4.940;2022-10-15T15:15:56;8.00;;;3.10;;
40254;SDS011;25973;52.368;4.940;2022-10-15T15:18:22;5.93;;;1.38;;
40254;SDS011;25973;52.368;4.940;2022-10-15T15:20:48;3.92;;;1.13;;
40254;SDS011;25973;52.368;4.940;2022-10-15T15:23:18;4.97;;;0.80;;
40254;SDS011;25973;52.368;4.940;2022-10-15T15:25:46;16.50;;;1.60;;
40254;SDS011;25973;52.368;4.940;2022-10-15T15:28:13;4.65;;;1.10;;
40254;SDS011;25973;52.368;4.940;2022-10-15T15:33:11;4.85;;;1.33;;
40254;SDS011;25973;52.368;4.940;2022-10-15T15:35:40;5.80;;;0.77;;
40254;SDS011;25973;52.368;4.940;2022-10-15T15:38:20;6.95;;;1.05;;
40254;SDS011;25973;52.368;4.940;2022-10-15T15:40:47;6.45;;;1.13;;
40254;SDS011;25973;52.368;4.940;2022-10-15T15:43:14;3.22;;;0.75;;
40254;SDS011;25973;52.368;4.940;2022-10-15T15:45:41;5.30;;;1.05;;
40254;SDS011;25973;52.368;4.940;2022-10-15T15:48:07;9.45;;;1.80;;
40254;SDS011;25973;52.368;4.940;2022-10-15T15:50:34;8.82;;;1.05;;
40254;SDS011;25973;52.368;4.940;2022-10-15T15:53:00;4.85;;;1.42;;
40254;SDS011;25973;52.368;4.940;2022-10-15T15:55:25;4.07;;;0.93;;
40254;SDS011;25973;52.368;4.940;2022-10-15T15:57:52;7.95;;;0.70;;
40254;SDS011;25973;52.368;4.940;2022-10-15T16:00:17;3.90;;;1.00;;
40254;SDS011;25973;52.368;4.940;2022-10-15T16:02:43;23.17;;;10.68;;
40254;SDS011;25973;52.368;4.940;2022-10-15T16:05:10;14.10;;;5.53;;
40254;SDS011;25973;52.368;4.940;2022-10-15T16:07:38;16.35;;;5.40;;
40254;SDS011;25973;52.368;4.940;2022-10-15T16:10:03;11.10;;;4.25;;
40254;SDS011;25973;52.368;4.940;2022-10-15T16:12:32;12.10;;;3.70;;
40254;SDS011;25973;52.368;4.940;2022-10-15T16:14:59;6.07;;;1.88;;
40254;SDS011;25973;52.368;4.940;2022-10-15T16:17:25;6.43;;;2.55;;
40254;SDS011;25973;52.368;4.940;2022-10-15T16:19:51;6.50;;;1.30;;
40254;SDS011;25973;52.368;4.940;2022-10-15T16:22:16;7.40;;;2.03;;
40254;SDS011;25973;52.368;4.940;2022-10-15T16:24:42;7.10;;;1.95;;
40254;SDS011;25973;52.368;4.940;2022-10-15T16:27:07;4.32;;;1.20;;
40254;SDS011;25973;52.368;4.940;2022-10-15T16:29:33;4.72;;;1.35;;
40254;SDS011;25973;52.368;4.940;2022-10-15T16:31:59;6.22;;;1.55;;
40254;SDS011;25973;52.368;4.940;2022-10-15T16:34:24;3.38;;;1.00;;
40254;SDS011;25973;52.368;4.940;2022-10-15T16:36:50;3.90;;;1.55;;
40254;SDS011;25973;52.368;4.940;2022-10-15T16:39:16;7.30;;;1.60;;
40254;SDS011;25973;52.368;4.940;2022-10-15T16:41:41;8.57;;;2.13;;
40254;SDS011;25973;52.368;4.940;2022-10-15T16:44:07;7.70;;;2.28;;
40254;SDS011;25973;52.368;4.940;2022-10-15T16:46:32;8.15;;;2.20;;